Katowice, Poland

12:53 PM CET on February 22, 2017 (GMT +0100)
Pyrzowice | | Change Station

Elev 932 ft 50.23 °N, 19.03 °E | Updated 23 minutes ago

Light Rain
Light Rain
45 °F
Feels Like 36 °F
N
21
Wind Variable Wind from SW

Today
High -- | Low -- °F
--% Chance of Precip.
Yesterday
High -- | Low -- °F
Precip. -- in
Pressure 29.62 in
Visibility 6.2 miles
Clouds Few 900 ft
Scattered Clouds 1100 ft
Mostly Cloudy 1300 ft
Windchill 36 °F
Dew Point 41 °F
Humidity 87%
Rainfall 0.00 in
Snow Depth Not available.
6:41 AM 5:14 PM
Waning Crescent, 18% visible
METAR EPKT 221130Z 22018KT 9999 -RA FEW009 SCT011 BKN013 07/05 Q1003
Pressure 29.62 in
Visibility 6.2 miles
Clouds Few 900 ft
Scattered Clouds 1100 ft
Mostly Cloudy 1300 ft
Windchill 36 °F
Dew Point 41 °F
Humidity 87%
Rainfall 0.00 in
Snow Depth Not available.
6:41 AM 5:14 PM
Waning Crescent, 18% visible
METAR EPKT 221130Z 22018KT 9999 -RA FEW009 SCT011 BKN013 07/05 Q1003

Get Your Daily Forecast Email!

Thanks for signing up!

Be on the lookout for a verification email in your inbox.

You'll start receiving the daily forecast at 8 AM.

×

10-Day Weather Forecast

×

Almanac

Astronomy

Feb. 22, 2017 Rise Set
Actual Time
Civil Twilight
Nautical Twilight
Astronomical Twilight
Moon
Length of Visible Light
Length of Day
Tomorrow will be .
, % of the Moon is Illuminated

Today's Extremes

Country Highs Country Lows

Community

WunderPhotos

Upload Photos

1,962,540 photos uploaded!

WunderBlog® & News

Nearby

Air Quality

  Air Quality AQ Index Pollutant
Not available.

Snow Depth

Station Depth Elevation

Earthquake Activity

City Distance Mag. Time & Date
Minimum magnitude displayed is 2.5.

Coastal Water Temperatures

Place Temperature

Stations

Nearby Weather Stations

Station Location Temp. Windchill Dew Point Humidity Wind Precip. Elev Updated Type